LBT weather

Lumberton Regional Airport
Lumberton, North Carolina, United States

Public forecast

Using degrees Fahrenheit for public forecast. Weather courtesy of forecast.io.

Current aviation weather report (METAR) for Lumberton Regional Airport

Report is more than 6 hours old.

Retrieved 2019/03/28 13:55 UTC (1 year ago):

KLBT 281355Z MKT MSM M M M M A0000 M M RMK TEST

Aviation forecast (TAF) for Lumberton Regional Airport

Retrieved 2020-07-16 00:34 UTC (1 hour ago):

TAF KLBT 152332Z 1600/1624 VRB03KT P6SM FEW060 SCT250 FM161800 10006KT P6SM SCT050 BKN250 AMD NOT SKED